createdAt,value
2022-11-04T00:00:29.666Z,-20523.28
2022-11-04T00:01:33.502Z,-20521.63
2022-11-04T00:02:35.686Z,-20522.91
2022-11-04T00:03:37.858Z,-20522.16
2022-11-04T00:04:40.010Z,-20520.69
2022-11-04T00:05:42.117Z,-20521.81
2022-11-04T00:06:44.432Z,-20520.69
2022-11-04T00:08:18.543Z,-20523.47
2022-11-04T00:09:22.790Z,-20522.53
2022-11-04T00:10:44.904Z,-20523.09
2022-11-04T00:12:06.331Z,-20520.50
2022-11-04T00:13:08.714Z,-20520.88
2022-11-04T00:14:12.358Z,-20522.72
2022-11-04T00:15:33.199Z,-20522.16
2022-11-04T00:16:53.859Z,-20521.25
2022-11-04T00:17:55.980Z,-20519.41
2022-11-04T00:18:59.923Z,-20522.00
2022-11-04T00:20:20.601Z,-20519.78
2022-11-04T00:21:41.416Z,-20520.88
2022-11-04T00:23:07.118Z,-20525.50
2022-11-04T00:24:30.242Z,-20523.28
2022-11-04T00:25:50.720Z,-20517.56
2022-11-04T00:27:11.286Z,-20519.78
2022-11-04T00:28:35.065Z,-20519.41
2022-11-04T00:29:37.213Z,-20517.19
2022-11-04T00:30:39.345Z,-20517.19
2022-11-04T00:31:59.727Z,-20518.47
2022-11-04T00:33:20.288Z,-20519.94
2022-11-04T00:34:22.391Z,-20522.00
2022-11-04T00:35:24.564Z,-20521.63
2022-11-04T00:36:26.849Z,-20522.53
2022-11-04T00:37:28.993Z,-20522.72
2022-11-04T00:38:31.144Z,-20524.19
2022-11-04T00:39:33.260Z,-20526.06
2022-11-04T00:40:35.571Z,-20523.84
2022-11-04T00:41:37.649Z,-20521.63
2022-11-04T00:42:39.820Z,-20523.84
2022-11-04T00:43:42.543Z,-20523.47
2022-11-04T00:44:44.642Z,-20524.19
2022-11-04T00:45:46.886Z,-20522.72
2022-11-04T00:46:49.005Z,-20525.13
2022-11-04T00:47:51.117Z,-20526.97
2022-11-04T00:48:53.584Z,-20526.78
2022-11-04T00:49:55.861Z,-20526.78
2022-11-04T00:50:58.002Z,-20527.16
2022-11-04T00:52:00.174Z,-20526.41
2022-11-04T00:53:03.747Z,-20526.78
2022-11-04T00:54:06.154Z,-20524.94
2022-11-04T00:55:08.600Z,-20526.06
2022-11-04T00:56:10.758Z,-20526.06
2022-11-04T00:57:13.794Z,-20526.78
2022-11-04T00:58:16.029Z,-20526.06
2022-11-04T00:59:18.121Z,-20526.41
2022-11-04T01:00:20.292Z,-20524.56
2022-11-04T01:01:22.572Z,-20523.66
2022-11-04T01:02:26.412Z,-20527.88
2022-11-04T01:03:28.613Z,-20527.53
2022-11-04T01:04:30.732Z,-20528.44
2022-11-04T01:05:32.840Z,-20528.06
2022-11-04T01:06:34.968Z,-20529.72
2022-11-04T01:07:43.399Z,-20528.06
2022-11-04T01:08:46.708Z,-20528.63
2022-11-04T01:09:49.458Z,-20531.03
2022-11-04T01:10:51.595Z,-20531.22
2022-11-04T01:11:53.861Z,-20529.91
2022-11-04T01:12:55.972Z,-20528.63
2022-11-04T01:13:58.539Z,-20531.22
2022-11-04T01:15:00.678Z,-20531.97
2022-11-04T01:16:05.162Z,-20533.63
2022-11-04T01:17:07.247Z,-20532.31
2022-11-04T01:18:09.872Z,-20531.97
2022-11-04T01:19:12.701Z,-20533.81
2022-11-04T01:20:14.939Z,-20533.06
2022-11-04T01:21:17.595Z,-20534.16
2022-11-04T01:22:19.713Z,-20532.88
2022-11-04T01:23:21.869Z,-20531.97
2022-11-04T01:24:24.047Z,-20535.28
2022-11-04T01:25:26.367Z,-20538.59
2022-11-04T01:26:28.869Z,-20538.78
2022-11-04T01:27:31.033Z,-20533.06
2022-11-04T01:28:33.180Z,-20533.81
2022-11-04T01:29:35.285Z,-20536.38
2022-11-04T01:30:40.140Z,-20544.50
2022-11-04T01:31:42.293Z,-20538.06
2022-11-04T01:32:44.412Z,-20536.56
2022-11-04T01:33:46.584Z,-20538.59
2022-11-04T01:34:48.755Z,-20536.38
2022-11-04T01:35:51.712Z,-20532.69
2022-11-04T01:36:53.837Z,-20534.91
2022-11-04T01:37:55.993Z,-20533.06
2022-11-04T01:38:58.198Z,-20530.66
2022-11-04T01:40:00.309Z,-20531.22
2022-11-04T01:41:03.304Z,-20531.41
2022-11-04T01:42:05.439Z,-20529.72
2022-11-04T01:43:19.607Z,-20536.03
2022-11-04T01:44:49.103Z,-20532.69
2022-11-04T01:46:01.407Z,-20523.47
2022-11-04T01:47:04.716Z,-20526.78
2022-11-04T01:48:20.806Z,-20522.91
2022-11-04T01:49:31.021Z,-20517.56
2022-11-04T01:50:36.467Z,-20523.09
2022-11-04T01:51:42.108Z,-20522.72
2022-11-04T01:52:49.888Z,-20520.88
2022-11-04T01:53:54.856Z,-20520.50
2022-11-04T01:55:02.139Z,-20520.50
2022-11-04T01:56:12.134Z,-20518.47
2022-11-04T01:57:21.293Z,-20515.34
2022-11-04T01:58:27.856Z,-20516.09
2022-11-04T01:59:34.554Z,-20516.44
2022-11-04T02:00:39.507Z,-20517.19
2022-11-04T02:01:43.420Z,-20516.25
2022-11-04T02:03:00.617Z,-20518.09
2022-11-04T02:04:21.860Z,-20508.69
2022-11-04T02:05:24.089Z,-20510.91
2022-11-04T02:06:26.185Z,-20506.84
2022-11-04T02:07:29.080Z,-20506.84
2022-11-04T02:08:31.441Z,-20507.59
2022-11-04T02:09:35.420Z,-20507.97
2022-11-04T02:10:41.142Z,-20507.78
2022-11-04T02:12:01.940Z,-20503.16
2022-11-04T02:13:05.856Z,-20508.31
2022-11-04T02:14:08.221Z,-20502.41
2022-11-04T02:15:10.899Z,-20499.09
2022-11-04T02:16:29.014Z,-20500.94
2022-11-04T02:17:43.535Z,-20499.09
2022-11-04T02:19:07.624Z,-20503.34
2022-11-04T02:20:27.724Z,-20501.13
2022-11-04T02:21:42.215Z,-20501.69
2022-11-04T02:22:59.439Z,-20494.13
2022-11-04T02:24:34.605Z,-20500.19
2022-11-04T02:26:01.316Z,-20500.56
2022-11-04T02:27:38.320Z,-20498.34
2022-11-04T02:29:09.596Z,-20497.25
2022-11-04T02:30:16.333Z,-20490.59
2022-11-04T02:31:35.397Z,-20496.16
2022-11-04T02:32:40.180Z,-20493.94
2022-11-04T02:33:48.037Z,-20496.16
2022-11-04T02:35:12.890Z,-20494.31
2022-11-04T02:36:31.518Z,-20492.81
2022-11-04T02:37:39.138Z,-20488.22
2022-11-04T02:39:00.184Z,-20496.53
2022-11-04T02:40:31.563Z,-20496.53
2022-11-04T02:41:40.246Z,-20167.72
2022-11-04T02:43:09.668Z,-20494.25
2022-11-04T02:44:25.317Z,-20492.03
2022-11-04T02:45:44.827Z,-20497.41
2022-11-04T02:46:52.581Z,-20172.81
2022-11-04T02:48:02.990Z,-19205.53
2022-11-04T02:49:19.149Z,-19849.50
2022-11-04T02:50:29.830Z,-19849.84
2022-11-04T02:51:39.599Z,-19202.56
2022-11-04T02:52:59.712Z,-20174.97
2022-11-04T02:54:09.873Z,-19529.75
2022-11-04T02:55:18.744Z,-19527.09
2022-11-04T02:56:22.762Z,-19199.44
2022-11-04T02:57:30.439Z,-20495.38
2022-11-04T02:58:38.522Z,-20488.72
2022-11-04T02:59:58.436Z,-20495.03
2022-11-04T03:01:03.535Z,-20490.97
2022-11-04T03:02:10.918Z,-20490.97
2022-11-04T03:03:17.950Z,-20491.34
2022-11-04T03:04:28.341Z,-20491.72
2022-11-04T03:05:37.272Z,-20491.72
2022-11-04T03:06:41.314Z,-20489.13
2022-11-04T03:07:47.021Z,-20488.41
2022-11-04T03:08:52.149Z,-20488.22
2022-11-04T03:10:00.092Z,-20487.09
2022-11-04T03:11:10.119Z,-20489.13
2022-11-04T03:12:17.899Z,-20490.97
2022-11-04T03:13:28.957Z,-20488.75
2022-11-04T03:14:41.340Z,-20490.97
2022-11-04T03:15:50.486Z,-20494.31
2022-11-04T03:16:57.832Z,-20490.78
2022-11-04T03:18:30.925Z,-20492.09
2022-11-04T03:19:47.602Z,-20492.47
2022-11-04T03:20:51.574Z,-20486.56
2022-11-04T03:21:59.659Z,-20485.81
2022-11-04T03:23:01.843Z,-20485.63
2022-11-04T03:24:05.448Z,-20485.44
2022-11-04T03:25:09.178Z,-20482.84
2022-11-04T03:26:59.367Z,-20487.84
2022-11-04T03:28:38.061Z,-20488.03
2022-11-04T03:29:45.593Z,-20483.78
2022-11-04T03:30:51.708Z,-20482.66
2022-11-04T03:32:22.372Z,-20485.06
2022-11-04T03:33:30.654Z,-20485.06
2022-11-04T03:34:33.199Z,-20482.50
2022-11-04T03:35:35.383Z,-20482.50
2022-11-04T03:36:37.611Z,-20481.38
2022-11-04T03:37:39.851Z,-20484.16
2022-11-04T03:38:42.446Z,-20487.84
2022-11-04T03:39:44.762Z,-20479.53
2022-11-04T03:40:46.985Z,-20478.41
2022-11-04T03:42:03.396Z,-20484.34
2022-11-04T03:43:27.249Z,-20485.63
2022-11-04T03:44:30.407Z,-20483.78
2022-11-04T03:45:32.595Z,-20483.97
2022-11-04T03:46:34.863Z,-20485.44
2022-11-04T03:47:37.223Z,-20483.22
2022-11-04T03:48:39.873Z,-20483.03
2022-11-04T03:49:43.394Z,-20483.22
2022-11-04T03:50:47.706Z,-20484.34
2022-11-04T03:51:51.216Z,-20489.50
2022-11-04T03:52:53.649Z,-20487.66
2022-11-04T03:53:56.920Z,-20488.03
2022-11-04T03:54:59.347Z,-20487.66
2022-11-04T03:56:32.440Z,-20495.22
2022-11-04T03:57:48.810Z,-20495.41
2022-11-04T03:59:04.631Z,-20496.34
2022-11-04T04:00:11.896Z,-20495.03
2022-11-04T04:01:46.464Z,-20490.97
2022-11-04T04:03:05.219Z,-20492.47
2022-11-04T04:04:39.946Z,-20496.16
2022-11-04T04:06:09.786Z,-20494.47
2022-11-04T04:07:24.133Z,-20495.03
2022-11-04T04:08:44.458Z,-20490.41
2022-11-04T04:10:04.393Z,-20496.69
2022-11-04T04:11:12.515Z,-20491.72
2022-11-04T04:12:19.176Z,-20490.06
2022-11-04T04:13:31.088Z,-20493.94
2022-11-04T04:14:42.483Z,-20492.81
2022-11-04T04:15:54.648Z,-20493.56
2022-11-04T04:16:59.035Z,-20493.19
2022-11-04T04:18:10.520Z,-20490.97
2022-11-04T04:19:21.779Z,-20493.19
2022-11-04T04:20:25.537Z,-20498.00
2022-11-04T04:21:38.166Z,-20499.84
2022-11-04T04:22:47.362Z,-20499.66
2022-11-04T04:24:10.428Z,-20492.81
2022-11-04T04:25:34.441Z,-20493.38
2022-11-04T04:26:58.579Z,-20493.75
2022-11-04T04:28:02.257Z,-20488.94
2022-11-04T04:29:06.854Z,-20489.13
2022-11-04T04:30:12.145Z,-20490.97
2022-11-04T04:31:36.164Z,-20490.59
2022-11-04T04:32:47.441Z,-20493.38
2022-11-04T04:33:49.559Z,-20488.94
2022-11-04T04:35:12.387Z,-20489.88
2022-11-04T04:36:14.627Z,-20486.19
2022-11-04T04:37:19.799Z,-20489.88
2022-11-04T04:38:44.180Z,-20488.41
2022-11-04T04:40:12.267Z,-20490.41
2022-11-04T04:41:45.763Z,-20483.22
2022-11-04T04:43:06.819Z,-20477.69
2022-11-04T04:44:38.052Z,-20479.16
2022-11-04T04:45:43.556Z,-20478.41
2022-11-04T04:46:49.306Z,-20475.47
2022-11-04T04:47:51.766Z,-20471.41
2022-11-04T04:48:53.928Z,-20470.13
2022-11-04T04:50:01.480Z,-20474.19
2022-11-04T04:51:03.758Z,-20469.75
2022-11-04T04:52:07.998Z,-20474.00
2022-11-04T04:53:11.445Z,-20474.91
2022-11-04T04:54:14.244Z,-20471.78
2022-11-04T04:55:17.507Z,-20469.56
2022-11-04T04:56:19.611Z,-20472.50
2022-11-04T04:57:21.927Z,-20468.81
2022-11-04T04:58:24.026Z,-20468.09
2022-11-04T04:59:26.163Z,-20469.56
2022-11-04T05:00:29.340Z,-20469.94
2022-11-04T05:01:32.204Z,-20470.66
2022-11-04T05:02:34.799Z,-20471.78
2022-11-04T05:03:41.022Z,-20471.97
2022-11-04T05:04:46.152Z,-20471.41
2022-11-04T05:05:48.324Z,-20472.88
2022-11-04T05:06:50.508Z,-20472.88
2022-11-04T05:07:52.609Z,-20470.84
2022-11-04T05:08:54.713Z,-20472.88
2022-11-04T05:09:56.925Z,-20473.25
2022-11-04T05:10:59.336Z,-20472.50
2022-11-04T05:12:01.682Z,-20469.56
2022-11-04T05:13:22.441Z,-20472.50
2022-11-04T05:14:24.573Z,-20470.28
2022-11-04T05:15:28.425Z,-20474.91
2022-11-04T05:16:30.546Z,-20474.72
2022-11-04T05:17:32.653Z,-20470.66
2022-11-04T05:18:35.848Z,-20471.03
2022-11-04T05:19:37.955Z,-20471.41
2022-11-04T05:20:40.337Z,-20474.00
2022-11-04T05:21:42.554Z,-20474.34
2022-11-04T05:22:44.665Z,-20474.00
2022-11-04T05:23:46.773Z,-20474.53
2022-11-04T05:24:48.909Z,-20473.63
2022-11-04T05:25:51.091Z,-20475.09
2022-11-04T05:26:53.233Z,-20475.28
2022-11-04T05:27:58.970Z,-20477.13
2022-11-04T05:29:01.110Z,-20477.69
2022-11-04T05:30:03.749Z,-20476.56
2022-11-04T05:31:06.715Z,-20479.16
2022-11-04T05:32:08.837Z,-20474.91
2022-11-04T05:33:11.446Z,-20477.69
2022-11-04T05:34:14.181Z,-20480.44
2022-11-04T05:35:16.433Z,-20480.63
2022-11-04T05:36:18.541Z,-20481.56
2022-11-04T05:37:20.685Z,-20482.13
2022-11-04T05:38:22.807Z,-20481.38
2022-11-04T05:39:24.913Z,-20483.59
2022-11-04T05:40:27.041Z,-20480.25
2022-11-04T05:41:29.398Z,-20482.13
2022-11-04T05:42:31.872Z,-20483.22
2022-11-04T05:43:34.814Z,-20481.75
2022-11-04T05:44:36.929Z,-20474.72
2022-11-04T05:45:39.056Z,-20474.34
2022-11-04T05:46:41.262Z,-20472.69
2022-11-04T05:47:43.397Z,-20475.28
2022-11-04T05:48:45.476Z,-20474.34
2022-11-04T05:49:47.582Z,-20476.22
2022-11-04T05:50:49.690Z,-20474.91
2022-11-04T05:51:51.844Z,-20476.56
2022-11-04T05:52:54.029Z,-20472.16
2022-11-04T05:53:56.188Z,-20474.34
2022-11-04T05:54:58.311Z,-20476.94
2022-11-04T05:56:00.490Z,-20472.50
2022-11-04T05:57:02.670Z,-20473.63
2022-11-04T05:58:04.768Z,-20472.50
2022-11-04T05:59:06.924Z,-20473.06
2022-11-04T06:00:10.708Z,-20479.16
2022-11-04T06:01:27.919Z,-20477.69
2022-11-04T06:02:30.255Z,-20475.66
2022-11-04T06:03:32.463Z,-20474.00
2022-11-04T06:04:34.651Z,-20472.16
2022-11-04T06:05:37.310Z,-20472.88
2022-11-04T06:06:39.720Z,-20471.03
2022-11-04T06:07:41.847Z,-20469.94
2022-11-04T06:08:45.293Z,-20471.03
2022-11-04T06:09:47.621Z,-20467.91
2022-11-04T06:10:49.710Z,-20468.81
2022-11-04T06:11:51.854Z,-20469.56
2022-11-04T06:12:53.979Z,-20471.97
2022-11-04T06:13:57.393Z,-20471.03
2022-11-04T06:14:59.587Z,-20469.19
2022-11-04T06:16:01.779Z,-20469.94
2022-11-04T06:17:04.419Z,-20472.16
2022-11-04T06:18:06.748Z,-20469.94
2022-11-04T06:19:13.478Z,-20472.50
2022-11-04T06:20:18.173Z,-20470.66
2022-11-04T06:21:25.329Z,-20475.28
2022-11-04T06:22:27.547Z,-20469.94
2022-11-04T06:23:29.700Z,-20472.16
2022-11-04T06:24:31.809Z,-20473.63
2022-11-04T06:25:33.945Z,-20473.44
2022-11-04T06:26:36.040Z,-20476.38
2022-11-04T06:27:38.163Z,-20474.00
2022-11-04T06:28:40.594Z,-20471.78
2022-11-04T06:29:42.768Z,-20473.81
2022-11-04T06:30:44.901Z,-20475.28
2022-11-04T06:31:47.039Z,-20478.78
2022-11-04T06:32:49.162Z,-20475.84
2022-11-04T06:33:51.320Z,-20476.94
2022-11-04T06:34:53.396Z,-20476.22
2022-11-04T06:36:02.350Z,-20480.63
2022-11-04T06:37:04.881Z,-20472.50
2022-11-04T06:38:07.331Z,-20476.00
2022-11-04T06:39:09.631Z,-20475.47
2022-11-04T06:40:11.956Z,-20475.84
2022-11-04T06:41:16.523Z,-20478.22
2022-11-04T06:42:18.769Z,-20472.16
2022-11-04T06:43:20.892Z,-20473.63
2022-11-04T06:44:24.028Z,-20474.72
2022-11-04T06:45:26.226Z,-20477.88
2022-11-04T06:46:38.479Z,-20484.34
2022-11-04T06:47:40.612Z,-20478.41
2022-11-04T06:48:42.721Z,-20476.94
2022-11-04T06:49:44.841Z,-20475.47
2022-11-04T06:50:47.114Z,-20476.94
2022-11-04T06:51:50.069Z,-20473.63
2022-11-04T06:52:52.195Z,-20471.03
2022-11-04T06:53:54.531Z,-20471.97
2022-11-04T06:54:56.637Z,-20472.50
2022-11-04T06:56:04.025Z,-20476.94
2022-11-04T06:57:06.724Z,-20475.84
2022-11-04T06:58:08.887Z,-20471.97
2022-11-04T06:59:20.997Z,-20480.81
2022-11-04T07:00:23.153Z,-20476.94
2022-11-04T07:01:28.490Z,-20479.91
2022-11-04T07:02:30.865Z,-20477.50
2022-11-04T07:03:33.003Z,-20478.06
2022-11-04T07:04:37.431Z,-20478.41
2022-11-04T07:05:39.585Z,-20478.59
2022-11-04T07:06:44.311Z,-20478.41
2022-11-04T07:07:47.213Z,-20478.41
2022-11-04T07:08:51.171Z,-20481.00
2022-11-04T07:09:53.299Z,-20476.94
2022-11-04T07:10:55.447Z,-20478.59
2022-11-04T07:11:57.588Z,-20474.34
2022-11-04T07:12:59.667Z,-20473.44
2022-11-04T07:14:02.650Z,-20477.31
2022-11-04T07:15:05.241Z,-20474.34
2022-11-04T07:16:08.908Z,-20473.63
2022-11-04T07:17:11.024Z,-20473.06
2022-11-04T07:18:13.170Z,-20469.56
2022-11-04T07:19:15.285Z,-20473.25
2022-11-04T07:20:17.417Z,-20470.13
2022-11-04T07:21:19.580Z,-20470.66
2022-11-04T07:22:21.732Z,-20471.41
2022-11-04T07:23:23.863Z,-20470.66
2022-11-04T07:24:25.951Z,-20470.28
2022-11-04T07:25:28.190Z,-20472.69
2022-11-04T07:26:30.447Z,-20470.66
2022-11-04T07:27:32.584Z,-20475.47
2022-11-04T07:28:35.192Z,-20471.97
2022-11-04T07:29:37.288Z,-20475.09
2022-11-04T07:30:39.441Z,-20478.06
2022-11-04T07:31:43.324Z,-20478.59
2022-11-04T07:32:45.699Z,-20478.22
2022-11-04T07:33:50.280Z,-20481.75
2022-11-04T07:34:52.515Z,-20483.97
2022-11-04T07:35:58.218Z,-20490.06
2022-11-04T07:37:00.714Z,-20493.19
2022-11-04T07:38:04.150Z,-20487.28
2022-11-04T07:39:06.786Z,-20488.75
2022-11-04T07:40:10.300Z,-20489.88
2022-11-04T07:41:13.814Z,-20488.75
2022-11-04T07:42:15.894Z,-20488.03
2022-11-04T07:43:18.446Z,-20486.91
2022-11-04T07:44:23.010Z,-20489.13
2022-11-04T07:45:25.197Z,-20485.81
2022-11-04T07:46:27.324Z,-20488.03
2022-11-04T07:47:30.996Z,-20492.09
2022-11-04T07:48:33.630Z,-20485.06
2022-11-04T07:49:35.814Z,-20483.03
2022-11-04T07:50:41.031Z,-20493.94
2022-11-04T07:51:43.241Z,-20488.03
2022-11-04T07:52:45.838Z,-20483.22
2022-11-04T07:53:47.986Z,-20484.69
2022-11-04T07:54:50.337Z,-20484.34
2022-11-04T07:55:52.516Z,-20484.69
2022-11-04T07:56:54.669Z,-20485.44
2022-11-04T07:57:56.847Z,-20484.16
2022-11-04T07:58:59.011Z,-20484.16
2022-11-04T08:00:01.136Z,-20484.34
2022-11-04T08:01:07.035Z,-20489.31
2022-11-04T08:02:11.069Z,-20492.81
2022-11-04T08:03:14.028Z,-20490.97
2022-11-04T08:04:16.319Z,-20492.63
2022-11-04T08:05:18.460Z,-20489.50
2022-11-04T08:06:21.553Z,-20490.78
2022-11-04T08:07:23.713Z,-20491.34
2022-11-04T08:08:26.789Z,-20491.34
2022-11-04T08:09:29.014Z,-20485.44
2022-11-04T08:10:31.106Z,-20490.25
2022-11-04T08:11:33.222Z,-20488.41
2022-11-04T08:12:35.371Z,-20491.72
2022-11-04T08:13:38.428Z,-20498.00
2022-11-04T08:14:40.625Z,-20494.31
2022-11-04T08:15:42.741Z,-20492.47
2022-11-04T08:16:44.999Z,-20496.88
2022-11-04T08:17:47.115Z,-20496.88
2022-11-04T08:18:52.177Z,-20498.34
2022-11-04T08:19:54.329Z,-20499.09
2022-11-04T08:20:56.469Z,-20491.53
2022-11-04T08:21:58.673Z,-20489.13
2022-11-04T08:23:00.819Z,-20492.09
2022-11-04T08:24:06.247Z,-20492.63
2022-11-04T08:25:11.073Z,-20490.25
2022-11-04T08:26:17.180Z,-20499.09
2022-11-04T08:27:19.391Z,-20501.31
2022-11-04T08:28:21.517Z,-20498.00
2022-11-04T08:29:23.735Z,-20510.53
2022-11-04T08:30:25.833Z,-20520.47
2022-11-04T08:31:33.707Z,-17301.75
2022-11-04T08:32:35.853Z,-14074.69
2022-11-04T08:33:38.037Z,-10842.97
2022-11-04T08:34:40.237Z,-6955.47
2022-11-04T08:35:42.792Z,-6311.63
2022-11-04T08:36:45.620Z,-4044.97
2022-11-04T08:37:47.770Z,-2097.63
2022-11-04T08:38:50.142Z,500.69
2022-11-04T08:39:52.257Z,500.75
2022-11-04T08:41:00.102Z,-2094.38
2022-11-04T08:42:02.585Z,-3066.94
2022-11-04T08:43:04.906Z,-4364.63
2022-11-04T08:44:07.148Z,-4368.44
2022-11-04T08:45:09.467Z,174.19
2022-11-04T08:46:11.816Z,3751.88
2022-11-04T08:47:13.956Z,13533.91
2022-11-04T08:48:19.018Z,24344.34
2022-11-04T08:49:21.702Z,43107.13
2022-11-04T08:50:27.755Z,67285.72
2022-11-04T08:51:31.697Z,100680.66
2022-11-04T08:52:34.268Z,138016.72
2022-11-04T08:53:36.558Z,149266.44
2022-11-04T08:54:38.694Z,149140.06
2022-11-04T08:55:40.804Z,146630.63
2022-11-04T08:56:42.970Z,129409.44
2022-11-04T08:57:45.256Z,111879.69
2022-11-04T08:58:48.126Z,112953.72
2022-11-04T08:59:50.316Z,118350.41
2022-11-04T09:00:52.534Z,134631.38
2022-11-04T09:01:54.817Z,149240.97
2022-11-04T09:02:57.153Z,149256.75
2022-11-04T09:03:59.406Z,149309.03
2022-11-04T09:05:01.892Z,149384.47
2022-11-04T09:06:06.646Z,149613.19
2022-11-04T09:07:08.818Z,149698.41
2022-11-04T09:08:17.442Z,149709.34
2022-11-04T09:09:20.184Z,149699.63
2022-11-04T09:10:22.780Z,149721.50
2022-11-04T09:11:24.931Z,149902.94
2022-11-04T09:12:27.055Z,150012.59
2022-11-04T09:13:29.315Z,149902.94
2022-11-04T09:14:31.428Z,149978.44
2022-11-04T09:15:33.597Z,149999.22
2022-11-04T09:16:37.406Z,150056.47
2022-11-04T09:17:40.265Z,150240.47
2022-11-04T09:18:42.710Z,150333.09
2022-11-04T09:19:44.898Z,150405.06
2022-11-04T09:20:46.988Z,150457.50
2022-11-04T09:21:49.157Z,150221.00
2022-11-04T09:22:53.135Z,150125.91
2022-11-04T09:23:55.738Z,149826.25
2022-11-04T09:24:57.998Z,149778.75
2022-11-04T09:26:14.606Z,149636.34
2022-11-04T09:27:16.792Z,149576.69
2022-11-04T09:28:18.961Z,149611.97
2022-11-04T09:29:21.125Z,149664.31
2022-11-04T09:30:23.267Z,149827.47
2022-11-04T09:31:28.107Z,149916.31
2022-11-04T09:32:30.305Z,149912.69
2022-11-04T09:33:33.136Z,150046.69
2022-11-04T09:34:35.544Z,150183.13
2022-11-04T09:35:38.284Z,150246.53
2022-11-04T09:36:40.351Z,150046.69
2022-11-04T09:37:43.175Z,149993.13
2022-11-04T09:38:45.324Z,150032.09
2022-11-04T09:39:52.719Z,150015.00
2022-11-04T09:40:56.882Z,149788.47
2022-11-04T09:42:27.062Z,149839.63
2022-11-04T09:43:44.274Z,149574.28
2022-11-04T09:45:22.782Z,149552.31
2022-11-04T09:46:26.956Z,149452.56
2022-11-04T09:47:31.907Z,149423.38
2022-11-04T09:48:42.339Z,149270.13
2022-11-04T09:49:48.095Z,149153.44
2022-11-04T09:51:01.082Z,149141.28
2022-11-04T09:52:17.311Z,149133.97
2022-11-04T09:53:45.722Z,149092.66
2022-11-04T09:55:10.526Z,149124.25
2022-11-04T09:56:35.462Z,148989.34
2022-11-04T09:57:37.828Z,148870.28
2022-11-04T09:58:40.157Z,148774.31
2022-11-04T09:59:42.317Z,148779.19
2022-11-04T10:01:01.735Z,148866.66
2022-11-04T10:02:22.843Z,148922.53
2022-11-04T10:03:24.928Z,149129.09
2022-11-04T10:04:43.237Z,149255.53
2022-11-04T10:06:03.965Z,149433.13
2022-11-04T10:07:18.087Z,149537.72
2022-11-04T10:08:59.316Z,149715.41
2022-11-04T10:10:23.847Z,149781.19
2022-11-04T10:11:29.081Z,149815.28
2022-11-04T10:12:33.940Z,150022.38
2022-11-04T10:13:56.209Z,149993.13
2022-11-04T10:15:12.579Z,149962.63
2022-11-04T10:16:14.768Z,149866.44
2022-11-04T10:17:55.421Z,149768.97
2022-11-04T10:19:09.500Z,150004.06
2022-11-04T10:20:43.915Z,150141.72
2022-11-04T10:21:49.037Z,150231.94
2022-11-04T10:23:08.089Z,150536.75
2022-11-04T10:24:16.080Z,150749.09
2022-11-04T10:25:46.041Z,150871.09
2022-11-04T10:27:00.761Z,150828.41
2022-11-04T10:28:04.156Z,150647.81
2022-11-04T10:29:14.084Z,150192.97
2022-11-04T10:30:19.656Z,150004.06
2022-11-04T10:31:22.429Z,149881.03
2022-11-04T10:32:40.588Z,149739.78
2022-11-04T10:34:00.779Z,149554.75
2022-11-04T10:35:22.357Z,149344.34
2022-11-04T10:36:26.300Z,149413.66
2022-11-04T10:37:28.960Z,149377.16
2022-11-04T10:38:44.727Z,149530.44
2022-11-04T10:39:47.286Z,149389.31
2022-11-04T10:40:53.674Z,149548.66
2022-11-04T10:41:58.317Z,149360.13
2022-11-04T10:43:04.505Z,149260.38
2022-11-04T10:44:11.431Z,149187.47
2022-11-04T10:45:14.094Z,149221.50
2022-11-04T10:46:28.463Z,149223.91
2022-11-04T10:47:39.976Z,149347.97
2022-11-04T10:49:20.918Z,149279.84
2022-11-04T10:50:53.233Z,149605.91
2022-11-04T10:51:56.269Z,149584.00
2022-11-04T10:53:28.021Z,149433.13
2022-11-04T10:54:36.276Z,149374.75
2022-11-04T10:55:53.446Z,149259.16
2022-11-04T10:56:57.534Z,149119.41
2022-11-04T10:57:59.779Z,149010.00
2022-11-04T10:59:26.069Z,149036.69
2022-11-04T11:00:38.027Z,148910.41
2022-11-04T11:01:51.281Z,148952.91
2022-11-04T11:02:53.542Z,148992.97
2022-11-04T11:03:56.664Z,148929.81
2022-11-04T11:05:23.613Z,149078.06
2022-11-04T11:06:32.787Z,149028.22
2022-11-04T11:07:37.665Z,149114.53
2022-11-04T11:08:41.494Z,149182.59
2022-11-04T11:09:56.906Z,149386.88
2022-11-04T11:10:59.453Z,149546.22
2022-11-04T11:12:29.429Z,149703.25
2022-11-04T11:13:38.756Z,149868.84
2022-11-04T11:14:42.322Z,150051.56
2022-11-04T11:15:44.550Z,149917.53
2022-11-04T11:16:48.110Z,150044.25
2022-11-04T11:17:51.037Z,150294.09
2022-11-04T11:19:13.882Z,150231.94
2022-11-04T11:20:21.149Z,150200.25
2022-11-04T11:21:23.927Z,150135.63
2022-11-04T11:22:39.735Z,150197.81
2022-11-04T11:23:47.281Z,150173.41
2022-11-04T11:24:49.396Z,150122.25
2022-11-04T11:25:51.647Z,150263.63
2022-11-04T11:26:56.389Z,150373.31
2022-11-04T11:28:19.862Z,150592.91
2022-11-04T11:29:26.650Z,150456.28
2022-11-04T11:30:46.664Z,150527.00
2022-11-04T11:31:50.328Z,150478.19
2022-11-04T11:33:00.707Z,150702.66
2022-11-04T11:34:07.636Z,150602.66
2022-11-04T11:35:17.641Z,150527.00
2022-11-04T11:36:26.459Z,150679.53
2022-11-04T11:37:32.859Z,150683.19
2022-11-04T11:38:35.042Z,150712.47
2022-11-04T11:39:37.268Z,150855.25
2022-11-04T11:40:52.154Z,150935.84
2022-11-04T11:42:03.258Z,151186.19
2022-11-04T11:43:06.076Z,150836.94
2022-11-04T11:44:34.836Z,150590.47
2022-11-04T11:45:36.905Z,150946.84
2022-11-04T11:46:42.110Z,150993.22
2022-11-04T11:47:44.292Z,151090.94
2022-11-04T11:48:52.632Z,151308.41
2022-11-04T11:50:30.063Z,151299.81
2022-11-04T11:51:32.718Z,151149.56
2022-11-04T11:52:39.737Z,150983.47
2022-11-04T11:54:02.800Z,150966.34
2022-11-04T11:55:19.996Z,150507.47
2022-11-04T11:56:45.879Z,150356.28
2022-11-04T12:01:22.345Z,150341.63
2022-11-04T12:02:41.932Z,150473.34
2022-11-04T12:10:18.545Z,150802.75
2022-11-04T12:11:48.976Z,151037.16
2022-11-04T12:12:59.957Z,151125.13
2022-11-04T12:14:25.784Z,151035.94
2022-11-04T12:15:50.766Z,150886.97
2022-11-04T12:17:04.910Z,150719.78
2022-11-04T12:18:42.905Z,150363.56
2022-11-04T12:20:14.836Z,150280.66
2022-11-04T12:21:33.244Z,150004.06
2022-11-04T12:22:41.443Z,149871.28
2022-11-04T12:23:47.263Z,149901.72
2022-11-04T12:25:09.315Z,150095.44
2022-11-04T12:26:17.045Z,150019.88
2022-11-04T12:27:47.431Z,149989.47
2022-11-04T12:28:58.721Z,149945.56
2022-11-04T12:30:25.475Z,149845.72
2022-11-04T12:31:50.692Z,149878.59
2022-11-04T12:33:04.746Z,149879.81
2022-11-04T12:34:34.222Z,150068.63
2022-11-04T12:35:51.937Z,150224.63
2022-11-04T12:37:06.253Z,150392.88
2022-11-04T12:38:14.406Z,150441.63
2022-11-04T12:39:38.486Z,150508.69
2022-11-04T12:40:41.589Z,150453.84
2022-11-04T12:42:06.876Z,150190.53
2022-11-04T12:43:08.906Z,150083.22
2022-11-04T12:44:24.124Z,150008.94
2022-11-04T12:45:29.200Z,150029.66
2022-11-04T12:47:04.358Z,150056.47
2022-11-04T12:48:11.604Z,150179.47
2022-11-04T12:49:53.504Z,149958.97
2022-11-04T12:51:11.672Z,150075.94
2022-11-04T12:52:13.775Z,150068.63
2022-11-04T12:53:34.432Z,150273.38
2022-11-04T12:54:53.727Z,150401.41
2022-11-04T12:56:09.991Z,150190.53
2022-11-04T12:57:27.240Z,150136.84
2022-11-04T12:59:00.797Z,150244.13
2022-11-04T13:00:18.825Z,150201.47
2022-11-04T13:01:37.654Z,150245.34
2022-11-04T13:02:56.404Z,150291.66
2022-11-04T13:04:12.705Z,150395.31
2022-11-04T13:05:32.833Z,150467.25
2022-11-04T13:06:39.898Z,150591.69